createdAt,value
2018-05-29T00:00:35.311Z,0
2018-05-29T00:01:35.989Z,0
2018-05-29T00:02:36.671Z,0
2018-05-29T00:03:37.351Z,0
2018-05-29T00:04:38.017Z,0
2018-05-29T00:05:38.705Z,0
2018-05-29T00:06:39.376Z,0
2018-05-29T00:07:40.364Z,0
2018-05-29T00:08:41.049Z,0
2018-05-29T00:09:41.760Z,0
2018-05-29T00:10:42.430Z,0
2018-05-29T00:11:43.112Z,0
2018-05-29T00:12:44.103Z,0
2018-05-29T00:13:44.774Z,0
2018-05-29T00:14:45.461Z,0
2018-05-29T00:15:46.138Z,0
2018-05-29T00:16:46.828Z,0
2018-05-29T00:17:47.919Z,0
2018-05-29T00:18:48.610Z,0
2018-05-29T00:19:49.293Z,0
2018-05-29T00:20:49.966Z,0
2018-05-29T00:21:50.643Z,0
2018-05-29T00:22:51.383Z,0
2018-05-29T00:23:52.059Z,0
2018-05-29T00:24:52.733Z,0
2018-05-29T00:25:53.426Z,0
2018-05-29T00:26:54.584Z,0
2018-05-29T00:27:55.343Z,0
2018-05-29T00:28:56.285Z,0
2018-05-29T00:29:56.973Z,0
2018-05-29T00:30:57.899Z,0
2018-05-29T00:31:58.625Z,0
2018-05-29T00:32:59.345Z,0
2018-05-29T00:34:00.511Z,0
2018-05-29T00:35:01.211Z,0
2018-05-29T00:36:01.943Z,0
2018-05-29T00:37:03.036Z,0
2018-05-29T00:38:04.083Z,0
2018-05-29T00:39:04.800Z,0
2018-05-29T00:40:06.080Z,0
2018-05-29T00:41:06.792Z,0
2018-05-29T00:42:07.527Z,0
2018-05-29T00:43:08.302Z,0
2018-05-29T00:44:09.059Z,0
2018-05-29T00:45:10.213Z,0
2018-05-29T00:46:10.929Z,0
2018-05-29T00:47:12.025Z,0
2018-05-29T00:48:12.798Z,0
2018-05-29T00:49:13.484Z,0
2018-05-29T00:50:14.270Z,0
2018-05-29T00:51:15.239Z,0
2018-05-29T00:52:16.115Z,0
2018-05-29T00:53:16.816Z,0
2018-05-29T00:54:17.582Z,0
2018-05-29T00:55:18.278Z,0
2018-05-29T00:56:18.967Z,0
2018-05-29T00:57:20.140Z,0
2018-05-29T00:58:21.079Z,0
2018-05-29T00:59:21.753Z,0
2018-05-29T01:00:22.434Z,0
2018-05-29T01:01:23.111Z,0
2018-05-29T01:02:23.796Z,0
2018-05-29T01:03:24.486Z,0
2018-05-29T01:04:25.156Z,0
2018-05-29T01:05:25.827Z,0
2018-05-29T01:06:26.763Z,0
2018-05-29T01:07:27.437Z,0
2018-05-29T01:08:28.123Z,0
2018-05-29T01:09:28.798Z,0
2018-05-29T01:10:29.493Z,0
2018-05-29T01:11:30.284Z,0
2018-05-29T01:12:30.954Z,0
2018-05-29T01:13:31.638Z,0
2018-05-29T01:14:32.323Z,0
2018-05-29T01:15:32.997Z,0
2018-05-29T01:16:33.770Z,0
2018-05-29T01:17:34.452Z,0
2018-05-29T01:18:35.130Z,0
2018-05-29T01:19:35.811Z,0
2018-05-29T01:20:36.491Z,0
2018-05-29T01:21:37.171Z,0
2018-05-29T01:22:37.851Z,0
2018-05-29T01:23:38.522Z,0
2018-05-29T01:24:39.209Z,0
2018-05-29T01:25:39.887Z,0
2018-05-29T01:26:40.567Z,0
2018-05-29T01:27:41.539Z,0
2018-05-29T01:28:42.227Z,0
2018-05-29T01:29:42.900Z,0
2018-05-29T01:30:43.589Z,0
2018-05-29T01:31:44.264Z,0
2018-05-29T01:32:45.346Z,0
2018-05-29T01:33:46.023Z,0
2018-05-29T01:34:46.694Z,0
2018-05-29T01:35:47.380Z,0
2018-05-29T01:36:48.061Z,0
2018-05-29T01:37:48.742Z,0
2018-05-29T01:38:49.407Z,0
2018-05-29T01:39:50.205Z,0
2018-05-29T01:40:50.878Z,0
2018-05-29T01:41:51.806Z,0
2018-05-29T01:42:52.495Z,0
2018-05-29T01:43:53.166Z,0
2018-05-29T01:44:53.894Z,0
2018-05-29T01:45:54.584Z,0
2018-05-29T01:46:55.254Z,0
2018-05-29T01:47:55.933Z,0
2018-05-29T01:48:56.607Z,0
2018-05-29T01:49:57.288Z,0
2018-05-29T01:50:57.956Z,0
2018-05-29T01:51:58.636Z,0
2018-05-29T01:52:59.312Z,0
2018-05-29T01:54:00.004Z,0
2018-05-29T01:55:00.676Z,0
2018-05-29T01:56:01.346Z,0
2018-05-29T01:57:02.040Z,0
2018-05-29T01:58:02.718Z,0
2018-05-29T01:59:03.402Z,0
2018-05-29T02:00:04.093Z,0
2018-05-29T02:01:04.764Z,0
2018-05-29T02:02:05.442Z,0
2018-05-29T02:03:06.117Z,0
2018-05-29T02:04:06.818Z,0
2018-05-29T02:05:07.497Z,0
2018-05-29T02:06:08.188Z,0
2018-05-29T02:07:08.913Z,0
2018-05-29T02:08:09.601Z,0
2018-05-29T02:09:10.278Z,0
2018-05-29T02:10:10.959Z,0
2018-05-29T02:11:11.890Z,0
2018-05-29T02:12:12.629Z,0
2018-05-29T02:13:13.311Z,0
2018-05-29T02:14:14.008Z,0
2018-05-29T02:15:14.672Z,0
2018-05-29T02:16:15.355Z,0
2018-05-29T02:17:16.078Z,0
2018-05-29T02:18:16.761Z,0
2018-05-29T02:19:17.440Z,0
2018-05-29T02:20:18.116Z,0
2018-05-29T02:21:18.796Z,0
2018-05-29T02:22:19.602Z,0
2018-05-29T02:23:20.273Z,0
2018-05-29T02:24:20.955Z,0
2018-05-29T02:25:21.641Z,0
2018-05-29T02:26:22.321Z,0
2018-05-29T02:27:23.450Z,0
2018-05-29T02:28:24.131Z,4
2018-05-29T02:29:24.808Z,4
2018-05-29T02:30:25.498Z,4
2018-05-29T02:31:26.194Z,0
2018-05-29T02:32:26.912Z,4
2018-05-29T02:33:27.594Z,4
2018-05-29T02:34:28.268Z,4
2018-05-29T02:35:28.951Z,4
2018-05-29T02:36:29.638Z,4
2018-05-29T02:37:30.318Z,8
2018-05-29T02:38:31.094Z,8
2018-05-29T02:39:31.769Z,8
2018-05-29T02:40:32.449Z,8
2018-05-29T02:41:33.134Z,8
2018-05-29T02:42:33.820Z,12
2018-05-29T02:43:34.603Z,12
2018-05-29T02:44:35.283Z,16
2018-05-29T02:45:35.959Z,16
2018-05-29T02:46:36.644Z,16
2018-05-29T02:47:37.327Z,24
2018-05-29T02:48:38.366Z,24
2018-05-29T02:49:39.047Z,28
2018-05-29T02:50:39.717Z,32
2018-05-29T02:51:40.399Z,36
2018-05-29T02:52:41.078Z,40
2018-05-29T02:53:42.156Z,44
2018-05-29T02:54:42.843Z,52
2018-05-29T02:55:43.532Z,56
2018-05-29T02:56:44.225Z,64
2018-05-29T02:57:44.898Z,72
2018-05-29T02:58:45.689Z,80
2018-05-29T02:59:46.370Z,88
2018-05-29T03:00:47.052Z,100
2018-05-29T03:01:47.739Z,108
2018-05-29T03:02:48.407Z,124
2018-05-29T03:03:49.087Z,136
2018-05-29T03:04:49.765Z,148
2018-05-29T03:05:50.453Z,164
2018-05-29T03:06:51.143Z,176
2018-05-29T03:07:51.827Z,192
2018-05-29T03:08:52.925Z,204
2018-05-29T03:09:53.612Z,224
2018-05-29T03:10:54.301Z,244
2018-05-29T03:11:54.974Z,264
2018-05-29T03:12:55.666Z,284
2018-05-29T03:13:56.449Z,308
2018-05-29T03:14:57.156Z,332
2018-05-29T03:15:57.827Z,356
2018-05-29T03:16:58.512Z,384
2018-05-29T03:17:59.188Z,408
2018-05-29T03:18:59.869Z,440
2018-05-29T03:20:00.558Z,472
2018-05-29T03:21:01.307Z,504
2018-05-29T03:22:01.945Z,540
2018-05-29T03:23:02.628Z,572
2018-05-29T03:24:03.314Z,608
2018-05-29T03:25:04.003Z,648
2018-05-29T03:26:04.682Z,688
2018-05-29T03:27:05.370Z,724
2018-05-29T03:28:06.048Z,764
2018-05-29T03:29:06.743Z,804
2018-05-29T03:30:07.423Z,848
2018-05-29T03:31:08.403Z,892
2018-05-29T03:32:09.098Z,936
2018-05-29T03:33:09.780Z,984
2018-05-29T03:34:10.475Z,1032
2018-05-29T03:35:11.146Z,1080
2018-05-29T03:36:12.238Z,1128
2018-05-29T03:37:13.169Z,1176
2018-05-29T03:38:13.852Z,1228
2018-05-29T03:39:14.544Z,1276
2018-05-29T03:40:15.225Z,1328
2018-05-29T03:41:15.908Z,1380
2018-05-29T03:42:16.601Z,1432
2018-05-29T03:43:17.282Z,1484
2018-05-29T03:44:17.970Z,1532
2018-05-29T03:45:18.659Z,1584
2018-05-29T03:46:19.448Z,1640
2018-05-29T03:47:20.134Z,1692
2018-05-29T03:48:20.823Z,1744
2018-05-29T03:49:21.517Z,1788
2018-05-29T03:50:22.200Z,1840
2018-05-29T03:51:23.233Z,1888
2018-05-29T03:52:23.910Z,1940
2018-05-29T03:53:24.606Z,1988
2018-05-29T03:54:25.322Z,2044
2018-05-29T03:55:25.965Z,2100
2018-05-29T03:56:26.655Z,2164
2018-05-29T03:57:27.443Z,2224
2018-05-29T03:58:28.124Z,2280
2018-05-29T03:59:28.814Z,2332
2018-05-29T04:00:29.497Z,2392
2018-05-29T04:01:30.191Z,2448
2018-05-29T04:02:30.877Z,2504
2018-05-29T04:03:31.561Z,2556
2018-05-29T04:04:32.507Z,2608
2018-05-29T04:05:33.198Z,2652
2018-05-29T04:06:33.877Z,2696
2018-05-29T04:07:35.019Z,2752
2018-05-29T04:08:35.698Z,2812
2018-05-29T04:09:36.404Z,2876
2018-05-29T04:10:37.074Z,2940
2018-05-29T04:11:37.748Z,2996
2018-05-29T04:12:38.488Z,3052
2018-05-29T04:13:39.168Z,3108
2018-05-29T04:14:40.123Z,3160
2018-05-29T04:15:40.799Z,3212
2018-05-29T04:16:41.735Z,3260
2018-05-29T04:17:42.780Z,3320
2018-05-29T04:18:43.535Z,3384
2018-05-29T04:19:44.217Z,3444
2018-05-29T04:20:44.896Z,3508
2018-05-29T04:21:45.587Z,3568
2018-05-29T04:22:46.271Z,3636
2018-05-29T04:23:46.971Z,3696
2018-05-29T04:24:47.650Z,3760
2018-05-29T04:25:48.681Z,3816
2018-05-29T04:26:49.612Z,3884
2018-05-29T04:27:50.286Z,3960
2018-05-29T04:28:51.213Z,4028
2018-05-29T04:29:51.913Z,4096
2018-05-29T04:30:53.010Z,4152
2018-05-29T04:31:53.688Z,4216
2018-05-29T04:32:54.372Z,4272
2018-05-29T04:33:55.069Z,4336
2018-05-29T04:34:55.752Z,4392
2018-05-29T04:35:56.433Z,4440
2018-05-29T04:36:57.147Z,4508
2018-05-29T04:37:57.833Z,4576
2018-05-29T04:38:58.515Z,4640
2018-05-29T04:39:59.213Z,4720
2018-05-29T04:40:59.885Z,4776
2018-05-29T04:42:00.818Z,4824
2018-05-29T04:43:01.500Z,4872
2018-05-29T04:44:02.194Z,4912
2018-05-29T04:45:03.320Z,4960
2018-05-29T04:46:04.005Z,5016
2018-05-29T04:47:04.703Z,5076
2018-05-29T04:48:05.370Z,5148
2018-05-29T04:49:06.061Z,5228
2018-05-29T04:50:06.754Z,5312
2018-05-29T04:51:07.437Z,5400
2018-05-29T04:52:08.120Z,5480
2018-05-29T04:53:08.802Z,5544
2018-05-29T04:54:09.486Z,5612
2018-05-29T04:55:10.170Z,5664
2018-05-29T04:56:10.858Z,5728
2018-05-29T04:57:11.547Z,5780
2018-05-29T04:58:12.237Z,5836
2018-05-29T04:59:12.916Z,5892
2018-05-29T05:00:13.605Z,5932
2018-05-29T05:01:14.313Z,5964
2018-05-29T05:02:15.281Z,5996
2018-05-29T05:03:15.967Z,6028
2018-05-29T05:04:17.009Z,6068
2018-05-29T05:05:17.689Z,6112
2018-05-29T05:06:18.363Z,6172
2018-05-29T05:07:19.559Z,6244
2018-05-29T05:08:20.251Z,6344
2018-05-29T05:09:21.278Z,6456
2018-05-29T05:10:21.972Z,6572
2018-05-29T05:11:22.642Z,6668
2018-05-29T05:12:23.332Z,6760
2018-05-29T05:13:24.019Z,6880
2018-05-29T05:14:24.709Z,7508
2018-05-29T05:15:25.389Z,7884
2018-05-29T05:16:26.075Z,7772
2018-05-29T05:17:26.764Z,7972
2018-05-29T05:18:27.440Z,7676
2018-05-29T05:19:28.477Z,7632
2018-05-29T05:20:29.162Z,7868
2018-05-29T05:21:29.847Z,8364
2018-05-29T05:22:30.540Z,8540
2018-05-29T05:23:31.290Z,8196
2018-05-29T05:24:32.282Z,8424
2018-05-29T05:25:32.968Z,8912
2018-05-29T05:26:33.649Z,8736
2018-05-29T05:27:34.343Z,9072
2018-05-29T05:28:35.031Z,9064
2018-05-29T05:29:35.970Z,9268
2018-05-29T05:30:36.642Z,10204
2018-05-29T05:31:37.734Z,9792
2018-05-29T05:32:38.461Z,9332
2018-05-29T05:33:39.102Z,10032
2018-05-29T05:34:39.805Z,10712
2018-05-29T05:35:40.496Z,9916
2018-05-29T05:36:41.265Z,9544
2018-05-29T05:37:41.951Z,10868
2018-05-29T05:38:42.638Z,11120
2018-05-29T05:39:43.319Z,10696
2018-05-29T05:40:44.024Z,10704
2018-05-29T05:41:44.795Z,11288
2018-05-29T05:42:45.479Z,10964
2018-05-29T05:43:46.230Z,13000
2018-05-29T05:44:47.168Z,13704
2018-05-29T05:45:47.847Z,13652
2018-05-29T05:46:48.588Z,13108
2018-05-29T05:47:49.536Z,11648
2018-05-29T05:48:50.221Z,12464
2018-05-29T05:49:51.438Z,15936
2018-05-29T05:50:52.117Z,18784
2018-05-29T05:51:52.904Z,13944
2018-05-29T05:52:53.602Z,10740
2018-05-29T05:53:54.279Z,12556
2018-05-29T05:54:54.973Z,10056
2018-05-29T05:55:55.674Z,9948
2018-05-29T05:56:56.359Z,9392
2018-05-29T05:57:57.037Z,9384
2018-05-29T05:58:57.723Z,9364
2018-05-29T05:59:59.024Z,9344
2018-05-29T06:00:59.701Z,9628
2018-05-29T06:02:00.449Z,10040
2018-05-29T06:03:01.142Z,9476
2018-05-29T06:04:01.857Z,9580
2018-05-29T06:05:02.564Z,9568
2018-05-29T06:06:03.266Z,9556
2018-05-29T06:07:03.944Z,9592
2018-05-29T06:08:05.306Z,9608
2018-05-29T06:09:06.155Z,9608
2018-05-29T06:10:06.845Z,9688
2018-05-29T06:11:07.535Z,10176
2018-05-29T06:12:08.222Z,10312
2018-05-29T06:13:08.908Z,10124
2018-05-29T06:14:09.618Z,12168
2018-05-29T06:15:10.763Z,10120
2018-05-29T06:16:11.448Z,11352
2018-05-29T06:17:12.384Z,20896
2018-05-29T06:18:13.329Z,25600
2018-05-29T06:19:14.013Z,21728
2018-05-29T06:20:14.702Z,22784
2018-05-29T06:21:15.441Z,22464
2018-05-29T06:22:16.135Z,13600
2018-05-29T06:23:16.827Z,15508
2018-05-29T06:24:17.526Z,15448
2018-05-29T06:25:18.504Z,19776
2018-05-29T06:26:19.190Z,25568
2018-05-29T06:27:19.871Z,16064
2018-05-29T06:28:20.815Z,11468
2018-05-29T06:29:21.766Z,10344
2018-05-29T06:30:22.752Z,10352
2018-05-29T06:31:23.424Z,10384
2018-05-29T06:32:24.108Z,10428
2018-05-29T06:33:24.792Z,10484
2018-05-29T06:34:25.520Z,10532
2018-05-29T06:35:26.184Z,10576
2018-05-29T06:36:26.893Z,10604
2018-05-29T06:37:27.889Z,11856
2018-05-29T06:38:28.602Z,13764
2018-05-29T06:39:29.272Z,18400
2018-05-29T06:40:29.955Z,21760
2018-05-29T06:41:30.640Z,11384
2018-05-29T06:42:31.322Z,11468
2018-05-29T06:43:32.018Z,11196
2018-05-29T06:44:32.707Z,10868
2018-05-29T06:45:33.389Z,10540
2018-05-29T06:46:34.092Z,10488
2018-05-29T06:47:34.785Z,10532
2018-05-29T06:48:35.575Z,10772
2018-05-29T06:49:36.269Z,10624
2018-05-29T06:50:36.958Z,11760
2018-05-29T06:51:37.932Z,11292
2018-05-29T06:52:38.673Z,10756
2018-05-29T06:53:39.292Z,10964
2018-05-29T06:54:39.974Z,10952
2018-05-29T06:55:40.654Z,11176
2018-05-29T06:56:41.338Z,11812
2018-05-29T06:57:42.283Z,11464
2018-05-29T06:58:42.963Z,11604
2018-05-29T06:59:43.657Z,11468
2018-05-29T07:00:44.346Z,11936
2018-05-29T07:01:45.039Z,11936
2018-05-29T07:02:45.717Z,14732
2018-05-29T07:03:46.410Z,25760
2018-05-29T07:04:47.100Z,25376
2018-05-29T07:05:48.060Z,41888
2018-05-29T07:06:48.743Z,36544
2018-05-29T07:07:49.437Z,42624
2018-05-29T07:08:50.123Z,42752
2018-05-29T07:09:50.812Z,47712
2018-05-29T07:10:51.505Z,49248
2018-05-29T07:11:52.589Z,43552
2018-05-29T07:12:53.282Z,31584
2018-05-29T07:13:53.967Z,13156
2018-05-29T07:14:54.657Z,13456
2018-05-29T07:15:55.331Z,12904
2018-05-29T07:16:56.030Z,14172
2018-05-29T07:17:56.718Z,37472
2018-05-29T07:18:57.399Z,13080
2018-05-29T07:19:58.125Z,53536
2018-05-29T07:20:58.864Z,13588
2018-05-29T07:21:59.547Z,56672
2018-05-29T07:23:00.227Z,17068
2018-05-29T07:24:00.918Z,54688
2018-05-29T07:25:01.691Z,63680
2018-05-29T07:26:02.789Z,55232
2018-05-29T07:27:03.464Z,61248
2018-05-29T07:28:04.156Z,59040
2018-05-29T07:29:05.107Z,44512
2018-05-29T07:30:05.787Z,57984
2018-05-29T07:31:06.479Z,58272
2018-05-29T07:32:07.173Z,58144
2018-05-29T07:33:08.255Z,57920
2018-05-29T07:34:08.947Z,57792
2018-05-29T07:35:09.628Z,58208
2018-05-29T07:36:10.313Z,59936
2018-05-29T07:37:10.997Z,59776
2018-05-29T07:38:11.790Z,60608
2018-05-29T07:39:12.487Z,61728
2018-05-29T07:40:13.177Z,62464
2018-05-29T07:41:13.871Z,62560
2018-05-29T07:42:14.805Z,30784
2018-05-29T07:43:15.548Z,64896
2018-05-29T07:44:16.250Z,67232
2018-05-29T07:45:16.970Z,68224
2018-05-29T07:46:17.626Z,67424
2018-05-29T07:47:18.322Z,67616
2018-05-29T07:48:19.323Z,67040
2018-05-29T07:49:20.004Z,66656
2018-05-29T07:50:20.681Z,67584
2018-05-29T07:51:21.371Z,67040
2018-05-29T07:52:22.075Z,67744
2018-05-29T07:53:22.828Z,69152
2018-05-29T07:54:23.526Z,71296
2018-05-29T07:55:24.236Z,72704
2018-05-29T07:56:24.921Z,72544
2018-05-29T07:57:25.639Z,72480
2018-05-29T07:58:26.386Z,72000
2018-05-29T07:59:27.086Z,71616
2018-05-29T08:00:27.766Z,70976
2018-05-29T08:01:28.456Z,71232
2018-05-29T08:02:29.164Z,71040
2018-05-29T08:03:29.897Z,71168
2018-05-29T08:04:30.608Z,72352
2018-05-29T08:05:31.306Z,74688
2018-05-29T08:06:32.013Z,75392
2018-05-29T08:07:32.708Z,75744
2018-05-29T08:08:33.696Z,73760
2018-05-29T08:09:34.381Z,71968
2018-05-29T08:10:35.081Z,71136
2018-05-29T08:11:35.765Z,72160
2018-05-29T08:12:36.453Z,74496
2018-05-29T08:13:37.511Z,75520
2018-05-29T08:14:38.185Z,75488
2018-05-29T08:15:38.874Z,73376
2018-05-29T08:16:39.570Z,71328
2018-05-29T08:17:40.258Z,71008
2018-05-29T08:18:40.968Z,73024
2018-05-29T08:19:41.673Z,76192
2018-05-29T08:20:42.360Z,78080
2018-05-29T08:21:43.318Z,77600
2018-05-29T08:22:44.018Z,76224
2018-05-29T08:23:44.719Z,74496
2018-05-29T08:24:45.668Z,74560
2018-05-29T08:25:46.464Z,74560
2018-05-29T08:26:47.147Z,75488
2018-05-29T08:27:47.837Z,74432
2018-05-29T08:28:48.767Z,72736
2018-05-29T08:29:49.457Z,71296
2018-05-29T08:30:50.145Z,74016
2018-05-29T08:31:50.836Z,80128
2018-05-29T08:32:51.525Z,83520
2018-05-29T08:33:52.216Z,83584
2018-05-29T08:34:52.903Z,79104
2018-05-29T08:35:53.860Z,72768
2018-05-29T08:36:54.566Z,70112
2018-05-29T08:37:55.360Z,70784
2018-05-29T08:38:56.072Z,73984
2018-05-29T08:39:56.748Z,76704
2018-05-29T08:40:57.451Z,78432
2018-05-29T08:41:58.144Z,78016
2018-05-29T08:42:58.934Z,76160
2018-05-29T08:44:00.140Z,75616
2018-05-29T08:45:00.822Z,75744
2018-05-29T08:46:01.812Z,76704
2018-05-29T08:47:02.470Z,76096
2018-05-29T08:48:03.556Z,73184
2018-05-29T08:49:04.241Z,71168
2018-05-29T08:50:05.194Z,71040
2018-05-29T08:51:05.880Z,73216
2018-05-29T08:52:06.570Z,77280
2018-05-29T08:53:07.316Z,80160
2018-05-29T08:54:07.969Z,82976
2018-05-29T08:55:08.649Z,85472
2018-05-29T08:56:09.605Z,84256
2018-05-29T08:57:10.278Z,81216
2018-05-29T08:58:10.984Z,79392
2018-05-29T08:59:11.671Z,77760
2018-05-29T09:00:12.463Z,77280
2018-05-29T09:01:13.152Z,79424
2018-05-29T09:02:13.839Z,82560
2018-05-29T09:03:14.530Z,84928
2018-05-29T09:04:15.242Z,88448
2018-05-29T09:05:15.918Z,90720
2018-05-29T09:06:16.614Z,91552
2018-05-29T09:07:17.298Z,87968
2018-05-29T09:08:17.995Z,84064
2018-05-29T09:09:18.698Z,86784
2018-05-29T09:10:19.385Z,89760
2018-05-29T09:11:20.473Z,94336
2018-05-29T09:12:21.164Z,95680
2018-05-29T09:13:21.871Z,93792
2018-05-29T09:14:22.557Z,89600
2018-05-29T09:15:23.507Z,90496
2018-05-29T09:16:24.448Z,95680
2018-05-29T09:17:25.853Z,100416
2018-05-29T09:18:26.538Z,101152
2018-05-29T09:19:27.237Z,98016
2018-05-29T09:20:27.939Z,92704
2018-05-29T09:21:28.618Z,91072
2018-05-29T09:22:29.971Z,93952
2018-05-29T09:23:30.664Z,95392
2018-05-29T09:24:31.353Z,96896
2018-05-29T09:25:32.046Z,96352
2018-05-29T09:26:32.745Z,93760
2018-05-29T09:27:33.520Z,92896
2018-05-29T09:28:34.212Z,93824
2018-05-29T09:29:34.966Z,93888
2018-05-29T09:30:35.605Z,92000
2018-05-29T09:31:36.307Z,92224
2018-05-29T09:32:37.004Z,91456
2018-05-29T09:33:37.694Z,91520
2018-05-29T09:34:38.379Z,91168
2018-05-29T09:35:39.093Z,91904
2018-05-29T09:36:39.790Z,93984
2018-05-29T09:37:40.734Z,95744
2018-05-29T09:38:41.414Z,96480
2018-05-29T09:39:42.408Z,95264
2018-05-29T09:40:43.107Z,93824
2018-05-29T09:41:43.796Z,93280
2018-05-29T09:42:44.510Z,93760
2018-05-29T09:43:45.215Z,92640
2018-05-29T09:44:45.917Z,93824
2018-05-29T09:45:46.635Z,93984
2018-05-29T09:46:47.406Z,96992
2018-05-29T09:47:48.089Z,97440
2018-05-29T09:48:48.777Z,96736
2018-05-29T09:49:49.472Z,95424
2018-05-29T09:50:50.157Z,87104
2018-05-29T09:51:50.859Z,97760
2018-05-29T09:52:51.570Z,98528
2018-05-29T09:53:52.239Z,96672
2018-05-29T09:54:52.928Z,95328
2018-05-29T09:55:53.611Z,80448
2018-05-29T09:56:54.305Z,92032
2018-05-29T09:57:55.005Z,93856
2018-05-29T09:58:55.710Z,97152
2018-05-29T09:59:56.416Z,99200
2018-05-29T10:00:57.109Z,96704
2018-05-29T10:01:58.166Z,98368
2018-05-29T10:02:58.851Z,99648
2018-05-29T10:03:59.537Z,53312
2018-05-29T10:05:00.223Z,67264
2018-05-29T10:06:00.923Z,33824
2018-05-29T10:07:01.823Z,96352
2018-05-29T10:08:02.426Z,94112
2018-05-29T10:09:03.122Z,92544
2018-05-29T10:10:03.812Z,93760
2018-05-29T10:11:04.505Z,94016
2018-05-29T10:12:05.203Z,93664
2018-05-29T10:13:05.905Z,93760
2018-05-29T10:14:06.606Z,93728
2018-05-29T10:15:07.316Z,93696
2018-05-29T10:16:08.003Z,92992
2018-05-29T10:17:08.757Z,92448
2018-05-29T10:18:09.383Z,93632
2018-05-29T10:19:10.374Z,95200
2018-05-29T10:20:11.081Z,96992
2018-05-29T10:21:11.771Z,97504
2018-05-29T10:22:12.457Z,95552
2018-05-29T10:23:13.150Z,93632
2018-05-29T10:24:13.854Z,91616
2018-05-29T10:25:14.544Z,91520
2018-05-29T10:26:15.244Z,91648
2018-05-29T10:27:15.921Z,91168
2018-05-29T10:28:16.628Z,92352
2018-05-29T10:29:17.330Z,93312
2018-05-29T10:30:18.022Z,95616
2018-05-29T10:31:18.717Z,97472
2018-05-29T10:32:19.414Z,97280
2018-05-29T10:33:20.100Z,96640
2018-05-29T10:34:20.793Z,95296
2018-05-29T10:35:21.543Z,96576
2018-05-29T10:36:22.235Z,94464
2018-05-29T10:37:22.924Z,92544
2018-05-29T10:38:23.621Z,93312
2018-05-29T10:39:24.309Z,93600
2018-05-29T10:40:25.010Z,93888
2018-05-29T10:41:25.713Z,93152
2018-05-29T10:42:26.410Z,93312
2018-05-29T10:43:27.095Z,93888
2018-05-29T10:44:27.774Z,94592
2018-05-29T10:45:28.732Z,94016
2018-05-29T10:46:29.409Z,95680
2018-05-29T10:47:30.139Z,99584
2018-05-29T10:48:30.831Z,98592
2018-05-29T10:49:31.524Z,99360
2018-05-29T10:50:32.218Z,98784
2018-05-29T10:51:32.917Z,98336
2018-05-29T10:52:33.625Z,97952
2018-05-29T10:53:34.561Z,101152
2018-05-29T10:54:35.289Z,100704
2018-05-29T10:55:35.976Z,103424
2018-05-29T10:56:36.676Z,101440
2018-05-29T10:57:37.661Z,99936
2018-05-29T10:58:38.448Z,101760
2018-05-29T10:59:39.594Z,101728
2018-05-29T11:00:40.288Z,102848
2018-05-29T11:01:41.267Z,105408
2018-05-29T11:02:41.968Z,105984
2018-05-29T11:03:42.912Z,104768
2018-05-29T11:04:43.596Z,102752
2018-05-29T11:05:44.290Z,101024
2018-05-29T11:06:45.230Z,98368
2018-05-29T11:07:45.923Z,97440
2018-05-29T11:08:46.622Z,97472
2018-05-29T11:09:47.320Z,94912
2018-05-29T11:10:48.022Z,94720
2018-05-29T11:11:48.714Z,93504
2018-05-29T11:12:49.408Z,92128
2018-05-29T11:13:50.179Z,91584
2018-05-29T11:14:50.872Z,93600
2018-05-29T11:15:51.561Z,95680
2018-05-29T11:16:52.777Z,97792
2018-05-29T11:17:53.981Z,96608
2018-05-29T11:18:54.686Z,99616
2018-05-29T11:19:55.469Z,101088
2018-05-29T11:20:56.218Z,99744
2018-05-29T11:21:56.905Z,99008
2018-05-29T11:22:57.879Z,96480
2018-05-29T11:23:58.832Z,94752
2018-05-29T11:24:59.521Z,92064
2018-05-29T11:26:00.272Z,92096
2018-05-29T11:27:00.959Z,94304
2018-05-29T11:28:01.663Z,93120
2018-05-29T11:29:02.569Z,99584
2018-05-29T11:30:03.392Z,99456
2018-05-29T11:31:04.564Z,99936
2018-05-29T11:32:05.245Z,98528
2018-05-29T11:33:06.035Z,105472
2018-05-29T11:34:07.038Z,106016
2018-05-29T11:35:07.808Z,106272
2018-05-29T11:36:08.572Z,103936
2018-05-29T11:37:09.520Z,101248
2018-05-29T11:38:10.209Z,98528
2018-05-29T11:39:11.367Z,97056
2018-05-29T11:40:12.469Z,94656
2018-05-29T11:41:14.727Z,95424
2018-05-29T11:42:16.241Z,94848
2018-05-29T11:43:16.945Z,94496
2018-05-29T11:44:18.347Z,95808
2018-05-29T11:45:19.327Z,97888
2018-05-29T11:46:20.288Z,97824
2018-05-29T11:47:20.973Z,97632
2018-05-29T11:48:21.673Z,87872
2018-05-29T11:49:22.371Z,74720
2018-05-29T11:50:23.069Z,73216
2018-05-29T11:51:23.776Z,34944
2018-05-29T11:52:24.471Z,22336
2018-05-29T11:53:25.152Z,35424
2018-05-29T11:54:25.855Z,24288
2018-05-29T11:55:26.538Z,25600
2018-05-29T11:56:27.631Z,46080
2018-05-29T11:57:28.336Z,53760
2018-05-29T11:58:29.972Z,48608
2018-05-29T11:59:31.020Z,61568
2018-05-29T12:00:32.109Z,90304
2018-05-29T12:01:32.817Z,79424
2018-05-29T12:02:33.572Z,57824
2018-05-29T12:03:34.265Z,53504
2018-05-29T12:04:34.965Z,48768
2018-05-29T12:05:35.723Z,56384
2018-05-29T12:06:36.427Z,55104
2018-05-29T12:07:37.200Z,64544
2018-05-29T12:08:37.829Z,82464
2018-05-29T12:09:38.527Z,71392
2018-05-29T12:10:39.311Z,88928
2018-05-29T12:11:40.014Z,114944
2018-05-29T12:12:40.723Z,113088
2018-05-29T12:13:41.421Z,109568
2018-05-29T12:14:42.380Z,110496
2018-05-29T12:15:43.068Z,106624
2018-05-29T12:16:43.776Z,105632
2018-05-29T12:17:44.454Z,107168
2018-05-29T12:18:45.245Z,104992
2018-05-29T12:19:45.943Z,100640
2018-05-29T12:20:46.645Z,96352
2018-05-29T12:21:47.330Z,95200
2018-05-29T12:22:48.277Z,92544
2018-05-29T12:23:48.967Z,90272
2018-05-29T12:24:49.670Z,93376
2018-05-29T12:25:50.395Z,97632
2018-05-29T12:26:51.098Z,101696
2018-05-29T12:27:51.793Z,102688
2018-05-29T12:28:52.500Z,101056
2018-05-29T12:29:53.191Z,99264
2018-05-29T12:30:54.289Z,95168
2018-05-29T12:31:54.992Z,90272
2018-05-29T12:32:55.689Z,91680
2018-05-29T12:33:56.393Z,95328
2018-05-29T12:34:57.099Z,96448
2018-05-29T12:35:58.098Z,96736
2018-05-29T12:36:58.787Z,93824
2018-05-29T12:37:59.477Z,88672
2018-05-29T12:39:00.169Z,86144
2018-05-29T12:40:00.873Z,86720
2018-05-29T12:41:01.576Z,89504
2018-05-29T12:42:02.270Z,92288
2018-05-29T12:43:02.969Z,100224
2018-05-29T12:44:03.667Z,102976
2018-05-29T12:45:04.357Z,99936
2018-05-29T12:46:05.522Z,96832
2018-05-29T12:47:06.207Z,85312
2018-05-29T12:48:06.904Z,83296
2018-05-29T12:49:07.603Z,82336
2018-05-29T12:50:08.305Z,83936
2018-05-29T12:51:09.053Z,86048
2018-05-29T12:52:09.757Z,89888
2018-05-29T12:53:10.447Z,86720
2018-05-29T12:54:11.132Z,83904
2018-05-29T12:55:11.821Z,79712
2018-05-29T12:56:12.521Z,79744
2018-05-29T12:57:13.220Z,76192
2018-05-29T12:58:13.930Z,79456
2018-05-29T12:59:14.641Z,76896
2018-05-29T13:00:15.316Z,75104
2018-05-29T13:01:16.040Z,81472
2018-05-29T13:02:16.741Z,81600
2018-05-29T13:03:17.430Z,80000
2018-05-29T13:04:18.135Z,76352
2018-05-29T13:05:19.178Z,76128
2018-05-29T13:06:19.921Z,73216
2018-05-29T13:07:20.621Z,75392
2018-05-29T13:08:21.566Z,74144
2018-05-29T13:09:22.515Z,76256
2018-05-29T13:10:23.229Z,46752
2018-05-29T13:11:23.929Z,59712
2018-05-29T13:12:24.626Z,70752
2018-05-29T13:13:25.331Z,46784
2018-05-29T13:14:26.285Z,51328
2018-05-29T13:15:26.997Z,22144
2018-05-29T13:16:27.671Z,70144
2018-05-29T13:17:28.372Z,76320
2018-05-29T13:18:29.322Z,73216
2018-05-29T13:19:30.112Z,78048
2018-05-29T13:20:30.808Z,72352
2018-05-29T13:21:31.501Z,69408
2018-05-29T13:22:32.209Z,71712
2018-05-29T13:23:32.880Z,25856
2018-05-29T13:24:33.573Z,24320
2018-05-29T13:25:34.263Z,55392
2018-05-29T13:26:34.996Z,40320
2018-05-29T13:27:35.711Z,70624
2018-05-29T13:28:36.398Z,70080
2018-05-29T13:29:37.463Z,73216
2018-05-29T13:30:38.160Z,73952